Walsh, Colorado
Current Conditions -  °F | °C
As of 1:35 PM on Monday 22 Dec 2014 (Local Time) from K3K3 Reporting Station
Clear Clear  
Wind Chill: 50°   Ceiling: Unl
Heat Index: 50°   Visibility: 10mi
Dew Point: 25°   Wind: 16mph
Humidity: 37%   Direction: 330°NNW
Pressure: 29.64"   Gusts: 21mph
Location:  37.39°N, 102.28°W
Report Text: K3K3 222035Z AUTO 33014G18KT 10SM CLR 10/M04 A2964 RMK AO2
Loading
Personal Weather Stations






























Interactive Weather Map New forecast layout! Learn more

10-Day Weather Forecast

Advertisements
Track Severe Weather on mobile